Time;durP1;ratioP1;P1;durP2;ratioP2;P2;SDS_P1;SDS_P2;PMS_P1;PMS_P2;Temp;Humidity;BMP_temperature;BMP_pressure;BME280_temperature;BME280_humidity;BME280_pressure;Samples;Min_cycle;Max_cycle;Signal;HPM_P1;HPM_P2
2022/03/01 00:01:23;;;;;;;12.07;7.10;;;;;;;1.57;nan;99352.47;5059245;28;20213;-69
2022/03/01 00:03:49;;;;;;;10.20;6.00;;;;;;;1.47;nan;99352.41;5059228;28;20196;-69
2022/03/01 00:06:16;;;;;;;9.00;6.20;;;;;;;1.52;nan;99346.75;5059490;28;20213;-69
2022/03/01 00:08:42;;;;;;;10.57;6.83;;;;;;;1.44;nan;99344.00;5059385;28;20248;-69
2022/03/01 00:11:08;;;;;;;10.53;6.93;;;;;;;1.34;nan;99349.19;5059164;28;20185;-69
2022/03/01 00:13:36;;;;;;;9.43;6.70;;;;;;;1.26;nan;99342.94;5059136;28;20235;-69
2022/03/01 00:16:02;;;;;;;9.17;6.67;;;;;;;1.15;nan;99351.69;5058828;28;20491;-69
2022/03/01 00:18:29;;;;;;;10.57;6.50;;;;;;;1.19;nan;99354.88;5059221;28;20264;-69
2022/03/01 00:20:55;;;;;;;12.67;6.80;;;;;;;1.06;nan;99346.38;5058879;28;20209;-69
2022/03/01 00:23:21;;;;;;;10.87;7.03;;;;;;;1.09;nan;99356.59;5058665;28;20197;-69
2022/03/01 00:25:48;;;;;;;10.80;6.63;;;;;;;1.07;nan;99356.72;5059181;28;20212;-69
2022/03/01 00:28:14;;;;;;;10.37;6.37;;;;;;;0.95;nan;99349.88;5058969;28;20221;-69
2022/03/01 00:30:40;;;;;;;11.10;7.33;;;;;;;0.92;nan;99357.16;5059093;28;20208;-69
2022/03/01 00:33:07;;;;;;;10.43;7.03;;;;;;;0.88;nan;99351.38;5059076;28;20198;-69
2022/03/01 00:35:33;;;;;;;11.37;7.20;;;;;;;0.82;nan;99359.75;5058888;28;20225;-70
2022/03/01 00:37:59;;;;;;;10.77;7.20;;;;;;;0.76;nan;99354.97;5058546;28;20221;-69
2022/03/01 00:40:26;;;;;;;10.47;7.40;;;;;;;0.74;nan;99362.16;5058849;28;20208;-69
2022/03/01 00:42:52;;;;;;;11.97;7.27;;;;;;;0.65;nan;99346.34;5058843;28;20224;-69
2022/03/01 00:45:18;;;;;;;11.47;6.67;;;;;;;0.67;nan;99354.94;5058754;28;20205;-69
2022/03/01 00:47:45;;;;;;;9.47;7.10;;;;;;;0.64;nan;99363.84;5058681;28;20228;-69
2022/03/01 00:50:11;;;;;;;10.83;7.47;;;;;;;0.57;nan;99356.59;5058689;28;20206;-69
2022/03/01 00:52:38;;;;;;;11.57;7.37;;;;;;;0.52;nan;99359.63;5058710;28;20197;-69
2022/03/01 00:55:05;;;;;;;12.17;7.67;;;;;;;0.54;nan;99352.47;5058599;28;20213;-69
2022/03/01 00:57:31;;;;;;;11.27;7.30;;;;;;;0.52;nan;99343.06;5058476;28;20453;-69
2022/03/01 00:59:57;;;;;;;11.43;7.20;;;;;;;0.45;nan;99344.53;5058423;28;20200;-69
2022/03/01 01:02:24;;;;;;;12.47;7.17;;;;;;;0.37;nan;99342.56;5058703;28;20441;-69
2022/03/01 01:04:50;;;;;;;14.23;7.73;;;;;;;0.35;nan;99336.59;5058119;28;20213;-69
2022/03/01 01:07:16;;;;;;;14.70;8.17;;;;;;;0.37;nan;99336.47;5058374;28;20189;-69
2022/03/01 01:09:43;;;;;;;12.37;7.30;;;;;;;0.30;nan;99335.34;5058272;28;20749;-69
2022/03/01 01:12:10;;;;;;;12.63;7.57;;;;;;;0.13;nan;99336.66;5058254;28;20730;-69
2022/03/01 01:14:36;;;;;;;13.90;8.70;;;;;;;0.19;nan;99344.84;5058226;28;20462;-69
2022/03/01 01:17:03;;;;;;;11.90;7.80;;;;;;;0.28;nan;99328.41;5058206;28;20452;-70
2022/03/01 01:19:30;;;;;;;13.83;8.63;;;;;;;0.30;nan;99330.91;5058119;28;20454;-69
2022/03/01 01:24:40;;;;;;;14.73;8.53;;;;;;;0.32;nan;99318.56;5058375;28;20761;-69
2022/03/01 01:27:06;;;;;;;13.50;8.47;;;;;;;0.34;nan;99316.63;5058041;28;20720;-69
2022/03/01 01:29:33;;;;;;;13.97;9.13;;;;;;;0.32;nan;99313.34;5057873;28;20901;-69
2022/03/01 01:31:59;;;;;;;14.10;8.37;;;;;;;0.24;nan;99316.53;5057799;28;20437;-69
2022/03/01 01:34:25;;;;;;;10.97;8.17;;;;;;;0.22;nan;99318.47;5056573;28;20874;-69
2022/03/01 01:36:52;;;;;;;13.80;9.23;;;;;;;0.26;nan;99307.75;5057862;28;20212;-69
2022/03/01 01:39:18;;;;;;;12.43;8.73;;;;;;;0.26;nan;99308.56;5057706;28;20458;-69
2022/03/01 01:41:44;;;;;;;14.30;8.90;;;;;;;0.20;nan;99301.22;5057787;28;20720;-69
2022/03/01 01:44:11;;;;;;;13.07;9.30;;;;;;;0.04;nan;99309.47;5057550;28;20208;-69
2022/03/01 01:46:38;;;;;;;13.73;8.93;;;;;;;0.00;nan;99305.44;5057597;28;20426;-69
2022/03/01 01:49:04;;;;;;;11.40;8.33;;;;;;;-0.03;nan;99313.53;5057546;28;20458;-69
2022/03/01 01:51:31;;;;;;;12.80;8.50;;;;;;;-0.19;nan;99315.72;5057499;28;20434;-69
2022/03/01 01:53:57;;;;;;;13.50;9.10;;;;;;;-0.17;nan;99316.41;5057539;28;20216;-69
2022/03/01 01:56:24;;;;;;;13.00;8.67;;;;;;;-0.23;nan;99327.34;5057037;28;20921;-69
2022/03/01 01:58:50;;;;;;;14.23;9.50;;;;;;;-0.19;nan;99328.78;5057304;28;20462;-69
2022/03/01 02:01:16;;;;;;;13.13;9.10;;;;;;;-0.22;nan;99318.56;5057035;28;20442;-70
2022/03/01 02:03:43;;;;;;;14.80;8.83;;;;;;;-0.19;nan;99322.69;5057548;28;20434;-69
2022/03/01 02:06:09;;;;;;;15.37;8.40;;;;;;;-0.14;nan;99317.94;5057146;28;20430;-70
2022/03/01 02:08:36;;;;;;;12.83;8.77;;;;;;;-0.07;nan;99317.38;5056833;28;20927;-69
2022/03/01 02:11:02;;;;;;;11.87;8.20;;;;;;;-0.02;nan;99317.81;5056865;28;20434;-69
2022/03/01 02:13:29;;;;;;;12.40;8.70;;;;;;;-0.01;nan;99314.25;5057104;28;20422;-69
2022/03/01 02:15:57;;;;;;;15.87;9.00;;;;;;;-0.09;nan;99315.81;5057016;28;20473;-69
2022/03/01 02:18:23;;;;;;;21.30;8.30;;;;;;;-0.06;nan;99315.56;5056957;28;20545;-69
2022/03/01 02:20:50;;;;;;;13.57;8.63;;;;;;;-0.12;nan;99311.63;5056591;28;20438;-69
2022/03/01 02:23:16;;;;;;;14.23;8.43;;;;;;;-0.06;nan;99313.78;5056891;28;20491;-69
2022/03/01 02:25:43;;;;;;;12.33;8.70;;;;;;;-0.10;nan;99306.28;5056919;28;20431;-69
2022/03/01 02:28:09;;;;;;;10.97;7.53;;;;;;;-0.15;nan;99295.38;5057094;28;20454;-69
2022/03/01 02:30:36;;;;;;;11.73;7.87;;;;;;;-0.23;nan;99301.22;5056875;28;20441;-69
2022/03/01 02:33:02;;;;;;;12.57;8.47;;;;;;;-0.28;nan;99307.75;5056802;28;20437;-69
2022/03/01 02:35:29;;;;;;;13.00;8.33;;;;;;;-0.27;nan;99299.00;5056960;28;20466;-69
2022/03/01 02:37:55;;;;;;;11.20;8.07;;;;;;;-0.35;nan;99302.19;5056745;28;20461;-69
2022/03/01 02:40:22;;;;;;;12.00;8.17;;;;;;;-0.34;nan;99293.41;5056717;28;20438;-69
2022/03/01 02:42:49;;;;;;;11.73;8.23;;;;;;;-0.37;nan;99298.88;5056339;28;20422;-69
2022/03/01 02:45:19;;;;;;;12.97;8.57;;;;;;;-0.43;nan;99296.75;5056333;28;20433;-69
2022/03/01 02:47:46;;;;;;;13.77;8.03;;;;;;;-0.43;nan;99309.81;5056514;28;20496;-69
2022/03/01 02:50:13;;;;;;;13.33;8.03;;;;;;;-0.42;nan;99301.00;5056510;28;20426;-69
2022/03/01 02:52:40;;;;;;;12.90;8.30;;;;;;;-0.40;nan;99301.72;5056188;28;20434;-70
2022/03/01 02:55:07;;;;;;;12.37;8.07;;;;;;;-0.43;nan;99304.59;5056423;28;20474;-69
2022/03/01 02:57:34;;;;;;;14.00;8.27;;;;;;;-0.43;nan;99301.97;5056610;28;20440;-69
2022/03/01 03:00:00;;;;;;;11.17;7.90;;;;;;;-0.45;nan;99298.63;5056305;28;20434;-69
2022/03/01 03:02:26;;;;;;;10.67;7.67;;;;;;;-0.36;nan;99297.09;5056457;28;20430;-69
2022/03/01 03:04:53;;;;;;;12.10;7.20;;;;;;;-0.42;nan;99295.78;5056417;28;20422;-69
2022/03/01 03:07:19;;;;;;;12.73;8.23;;;;;;;-0.45;nan;99303.03;5056313;28;20438;-69
2022/03/01 03:09:47;;;;;;;13.70;7.43;;;;;;;-0.42;nan;99295.78;5057040;28;20500;-69
2022/03/01 03:12:13;;;;;;;14.53;8.60;;;;;;;-0.41;nan;99297.44;5056202;28;20901;-69
2022/03/01 03:14:39;;;;;;;12.70;8.30;;;;;;;-0.47;nan;99292.72;5055888;28;20862;-69
2022/03/01 03:17:06;;;;;;;14.37;8.83;;;;;;;-0.47;nan;99297.94;5056276;28;20435;-69
2022/03/01 03:19:32;;;;;;;11.80;8.47;;;;;;;-0.55;nan;99295.09;5056182;28;20467;-69
2022/03/01 03:21:59;;;;;;;12.47;8.13;;;;;;;-0.61;nan;99299.94;5056206;28;20484;-69
2022/03/01 03:24:26;;;;;;;13.90;8.30;;;;;;;-0.57;nan;99297.00;5055916;28;20788;-69
2022/03/01 03:26:52;;;;;;;14.00;7.67;;;;;;;-0.52;nan;99294.84;5055953;28;20838;-69
2022/03/01 03:29:18;;;;;;;13.30;9.13;;;;;;;-0.61;nan;99290.34;5055773;28;20769;-69
2022/03/01 03:31:45;;;;;;;11.63;8.37;;;;;;;-0.69;nan;99300.56;5056120;28;20434;-69
2022/03/01 03:34:12;;;;;;;12.13;7.60;;;;;;;-0.72;nan;99303.38;5056165;28;20465;-69
2022/03/01 03:36:41;;;;;;;11.50;8.00;;;;;;;-0.72;nan;99297.34;5056010;28;20477;-69
2022/03/01 03:39:09;;;;;;;13.07;8.83;;;;;;;-0.87;nan;99295.91;5055722;28;20454;-69
2022/03/01 03:41:36;;;;;;;10.10;7.73;;;;;;;-0.85;nan;99312.28;5056041;28;20430;-69
2022/03/01 03:44:03;;;;;;;12.03;8.23;;;;;;;-0.83;nan;99300.78;5055947;28;20457;-69
2022/03/01 03:46:30;;;;;;;13.17;7.60;;;;;;;-0.83;nan;99295.56;5055835;28;20430;-69
2022/03/01 03:48:56;;;;;;;11.53;7.43;;;;;;;-0.85;nan;99307.88;5055426;28;20893;-69
2022/03/01 03:51:24;;;;;;;14.07;7.90;;;;;;;-0.80;nan;99297.91;5056454;28;20422;-69
2022/03/01 03:53:51;;;;;;;13.80;8.87;;;;;;;-0.79;nan;99301.38;5055870;28;20434;-69
2022/03/01 03:56:17;;;;;;;11.83;8.17;;;;;;;-0.87;nan;99301.13;5055713;28;20470;-69
2022/03/01 03:58:43;;;;;;;13.83;8.60;;;;;;;-0.95;nan;99303.50;5058949;28;20489;-69
2022/03/01 04:01:10;;;;;;;11.57;7.97;;;;;;;-0.90;nan;99304.78;5059433;28;20473;-69
2022/03/01 04:03:37;;;;;;;15.67;8.60;;;;;;;-1.04;nan;99297.19;5059594;28;20731;-69
2022/03/01 04:06:04;;;;;;;12.23;9.17;;;;;;;-1.02;nan;99292.69;5059464;28;20475;-69
2022/03/01 04:08:30;;;;;;;13.50;8.27;;;;;;;-1.06;nan;99299.09;5059349;28;20454;-69
2022/03/01 04:10:57;;;;;;;14.43;8.87;;;;;;;-1.09;nan;99295.88;5059291;28;20422;-69
2022/03/01 04:13:27;;;;;;;11.53;7.53;;;;;;;-1.08;nan;99295.75;5059116;28;20438;-69
2022/03/01 04:15:54;;;;;;;12.07;8.33;;;;;;;-1.07;nan;99292.19;5059104;28;20466;-69
2022/03/01 04:18:20;;;;;;;12.90;8.03;;;;;;;-1.17;nan;99285.19;5058697;28;20454;-69
2022/03/01 04:20:46;;;;;;;10.73;8.13;;;;;;;-1.19;nan;99287.09;5058743;28;20830;-69
2022/03/01 04:23:14;;;;;;;16.83;9.03;;;;;;;-1.19;nan;99292.28;5059049;28;20434;-69
2022/03/01 04:25:40;;;;;;;13.00;8.47;;;;;;;-1.20;nan;99291.50;5058950;28;20423;-69
2022/03/01 04:28:07;;;;;;;14.73;8.33;;;;;;;-1.23;nan;99291.72;5058931;28;20458;-69
2022/03/01 04:30:33;;;;;;;12.37;8.60;;;;;;;-1.22;nan;99292.56;5058660;28;20434;-69
2022/03/01 04:33:00;;;;;;;13.60;8.53;;;;;;;-1.27;nan;99286.81;5058739;28;20434;-69
2022/03/01 04:35:27;;;;;;;14.27;8.70;;;;;;;-1.30;nan;99282.66;5058571;28;20480;-69
2022/03/01 04:37:54;;;;;;;12.40;9.23;;;;;;;-1.29;nan;99279.13;5058368;28;20462;-69
2022/03/01 04:40:20;;;;;;;13.30;9.00;;;;;;;-1.29;nan;99278.28;5058406;28;20430;-69
2022/03/01 04:42:47;;;;;;;16.77;8.53;;;;;;;-1.21;nan;99273.34;5058458;28;20434;-69
2022/03/01 04:45:14;;;;;;;12.93;8.30;;;;;;;-1.18;nan;99270.47;5058284;28;20440;-69
2022/03/01 04:47:41;;;;;;;13.83;9.20;;;;;;;-1.27;nan;99274.63;5058470;28;20418;-69
2022/03/01 04:50:08;;;;;;;13.20;8.87;;;;;;;-1.21;nan;99271.53;5058555;28;20441;-69
2022/03/01 04:52:34;;;;;;;14.30;8.23;;;;;;;-1.22;nan;99274.28;5058530;28;20488;-69
2022/03/01 04:55:01;;;;;;;15.53;9.00;;;;;;;-1.28;nan;99270.34;5058401;28;20457;-69
2022/03/01 04:57:27;;;;;;;14.33;8.67;;;;;;;-1.29;nan;99271.31;5058387;28;20477;-69
2022/03/01 04:59:53;;;;;;;14.67;9.63;;;;;;;-1.33;nan;99263.81;5058424;28;20429;-69
2022/03/01 05:02:21;;;;;;;17.70;9.63;;;;;;;-1.23;nan;99268.22;5058292;28;20476;-69
2022/03/01 05:04:47;;;;;;;14.83;8.60;;;;;;;-1.22;nan;99267.28;5057883;28;20434;-70
2022/03/01 05:07:13;;;;;;;16.17;9.93;;;;;;;-1.17;nan;99261.72;5058130;28;20435;-69
2022/03/01 05:09:40;;;;;;;15.37;9.27;;;;;;;-1.16;nan;99264.22;5058080;28;20461;-69
2022/03/01 05:12:07;;;;;;;16.13;9.80;;;;;;;-1.14;nan;99257.09;5058209;28;20419;-69
2022/03/01 05:14:33;;;;;;;14.97;9.07;;;;;;;-1.17;nan;99246.88;5058186;28;20434;-69
2022/03/01 05:16:59;;;;;;;15.03;9.23;;;;;;;-1.19;nan;99245.34;5058003;28;20465;-69
2022/03/01 05:19:26;;;;;;;18.70;9.77;;;;;;;-1.19;nan;99248.78;5057981;28;20750;-69
2022/03/01 05:21:52;;;;;;;17.20;9.87;;;;;;;-1.13;nan;99248.31;5057942;28;20441;-69
2022/03/01 05:24:18;;;;;;;15.10;9.57;;;;;;;-1.27;nan;99252.91;5057823;28;20434;-69
2022/03/01 05:26:45;;;;;;;16.77;10.63;;;;;;;-1.30;nan;99247.94;5057639;28;20430;-69
2022/03/01 05:29:11;;;;;;;15.93;9.63;;;;;;;-1.37;nan;99251.94;5057694;28;20457;-69
2022/03/01 05:31:37;;;;;;;16.23;9.50;;;;;;;-1.41;nan;99253.97;5057837;28;20422;-69
2022/03/01 05:34:03;;;;;;;16.73;9.13;;;;;;;-1.41;nan;99261.78;5057283;28;20743;-69
2022/03/01 05:36:30;;;;;;;15.80;9.57;;;;;;;-1.40;nan;99260.84;5057250;28;20473;-69
2022/03/01 05:38:56;;;;;;;16.03;9.70;;;;;;;-1.38;nan;99263.34;5057249;28;20456;-69
2022/03/01 05:41:24;;;;;;;13.43;9.07;;;;;;;-1.27;nan;99261.56;5056815;28;20861;-69
2022/03/01 05:43:50;;;;;;;14.77;10.00;;;;;;;-1.37;nan;99250.19;5056657;28;20457;-69
2022/03/01 05:46:16;;;;;;;15.43;9.93;;;;;;;-1.34;nan;99263.00;5056768;28;20818;-69
2022/03/01 05:48:43;;;;;;;14.33;9.00;;;;;;;-1.46;nan;99258.69;5056745;28;20905;-69
2022/03/01 05:51:09;;;;;;;17.50;9.30;;;;;;;-1.48;nan;99254.53;5057103;28;20430;-69
2022/03/01 05:53:36;;;;;;;16.30;8.97;;;;;;;-1.47;nan;99257.03;5056994;28;20515;-69
2022/03/01 05:56:02;;;;;;;14.33;8.67;;;;;;;-1.46;nan;99255.25;5056946;28;20466;-70
2022/03/01 05:58:28;;;;;;;14.47;9.20;;;;;;;-1.41;nan;99272.22;5057194;28;20460;-69
2022/03/01 06:00:55;;;;;;;16.43;8.83;;;;;;;-1.43;nan;99273.28;5056691;28;20442;-69
2022/03/01 06:03:21;;;;;;;12.97;8.80;;;;;;;-1.48;nan;99276.22;5056619;28;20434;-69
2022/03/01 06:05:47;;;;;;;12.87;8.33;;;;;;;-1.38;nan;99282.44;5056843;28;20423;-69
2022/03/01 06:08:14;;;;;;;14.87;8.67;;;;;;;-1.48;nan;99273.59;5056744;28;20466;-69
2022/03/01 06:10:40;;;;;;;19.40;9.20;;;;;;;-1.43;nan;99284.56;5057028;28;20430;-69
2022/03/01 06:13:06;;;;;;;14.93;9.47;;;;;;;-1.49;nan;99290.22;5056747;28;20505;-69
2022/03/01 06:15:33;;;;;;;16.03;8.83;;;;;;;-1.37;nan;99281.47;5056605;28;20430;-69
2022/03/01 06:17:59;;;;;;;16.37;8.93;;;;;;;-1.45;nan;99291.66;5056511;28;20633;-69
2022/03/01 06:20:27;;;;;;;16.27;9.13;;;;;;;-1.17;nan;99295.63;5056902;28;20682;-69
2022/03/01 06:22:53;;;;;;;16.23;9.47;;;;;;;-1.09;nan;99296.72;5055806;28;20816;-69
2022/03/01 06:25:20;;;;;;;15.27;9.50;;;;;;;-1.14;nan;99296.22;5056184;28;20442;-69
2022/03/01 06:27:46;;;;;;;20.90;9.97;;;;;;;-1.17;nan;99298.25;5056901;28;20724;-69
2022/03/01 06:30:13;;;;;;;19.43;9.20;;;;;;;-1.21;nan;99296.81;5056266;28;20422;-70
2022/03/01 06:32:39;;;;;;;14.23;9.33;;;;;;;-1.20;nan;99290.66;5056373;28;20478;-70
2022/03/01 06:35:06;;;;;;;14.50;9.80;;;;;;;-1.25;nan;99293.63;5056173;28;20429;-69
2022/03/01 06:37:32;;;;;;;15.20;9.17;;;;;;;-1.21;nan;99299.44;5056104;28;20468;-69
2022/03/01 06:39:59;;;;;;;15.00;9.03;;;;;;;-1.25;nan;99298.84;5056398;28;20423;-69
2022/03/01 06:42:26;;;;;;;18.27;9.73;;;;;;;-1.21;nan;99302.84;5056046;28;20434;-69
2022/03/01 06:44:52;;;;;;;16.53;8.80;;;;;;;-1.30;nan;99311.34;5055849;28;20418;-69
2022/03/01 06:47:19;;;;;;;14.17;8.60;;;;;;;-1.18;nan;99312.22;5056136;28;20418;-69
2022/03/01 06:49:45;;;;;;;13.73;9.60;;;;;;;-1.20;nan;99325.41;5055725;28;20779;-69
2022/03/01 06:52:12;;;;;;;13.60;9.30;;;;;;;-1.10;nan;99328.97;5055997;28;20422;-69
2022/03/01 06:54:38;;;;;;;13.63;8.83;;;;;;;-1.10;nan;99322.91;5056440;28;20432;-69
2022/03/01 06:57:04;;;;;;;15.73;9.17;;;;;;;-1.02;nan;99328.41;5056127;28;20752;-69
2022/03/01 06:59:31;;;;;;;13.77;8.50;;;;;;;-0.88;nan;99328.19;5055990;28;20465;-69
2022/03/01 07:01:58;;;;;;;15.17;9.23;;;;;;;-0.85;nan;99331.38;5055840;28;20534;-69
2022/03/01 07:04:24;;;;;;;13.90;8.90;;;;;;;-0.78;nan;99332.59;5055947;28;20431;-69
2022/03/01 07:06:50;;;;;;;16.10;10.40;;;;;;;-0.70;nan;99338.06;5056087;28;20426;-70
2022/03/01 07:09:17;;;;;;;19.17;10.93;;;;;;;-0.61;nan;99345.19;5055669;28;20454;-69
2022/03/01 07:11:43;;;;;;;14.47;9.07;;;;;;;-0.54;nan;99341.13;5055598;28;20437;-69
2022/03/01 07:14:09;;;;;;;11.93;8.20;;;;;;;-0.43;nan;99341.16;5056439;28;20422;-69
2022/03/01 07:16:36;;;;;;;14.23;9.23;;;;;;;-0.45;nan;99350.88;5055867;28;20469;-69
2022/03/01 07:19:02;;;;;;;16.87;9.57;;;;;;;-0.42;nan;99348.03;5055610;28;20464;-69
2022/03/01 07:21:28;;;;;;;14.97;9.10;;;;;;;-0.35;nan;99348.38;5055790;28;20445;-69
2022/03/01 07:23:55;;;;;;;14.97;9.00;;;;;;;-0.31;nan;99355.03;5055397;28;20481;-69
2022/03/01 07:26:21;;;;;;;13.03;9.23;;;;;;;-0.29;nan;99358.34;5055747;28;20457;-69
2022/03/01 07:28:48;;;;;;;15.27;9.80;;;;;;;-0.25;nan;99358.00;5055077;28;20909;-69
2022/03/01 07:31:14;;;;;;;15.97;10.00;;;;;;;-0.19;nan;99359.28;5055644;28;20437;-69
2022/03/01 07:33:41;;;;;;;18.20;11.23;;;;;;;-0.15;nan;99364.19;5058527;28;20422;-69
2022/03/01 07:36:08;;;;;;;14.33;10.17;;;;;;;-0.07;nan;99359.19;5059163;28;20857;-69
2022/03/01 07:38:35;;;;;;;17.17;10.90;;;;;;;0.01;nan;99359.38;5059217;28;20457;-69
2022/03/01 07:41:01;;;;;;;16.70;9.80;;;;;;;0.03;nan;99368.91;5068744;28;20419;-69
2022/03/01 07:43:27;;;;;;;16.90;10.23;;;;;;;0.03;nan;99360.13;5060192;28;20845;-69
2022/03/01 07:45:54;;;;;;;17.37;9.50;;;;;;;0.14;nan;99367.91;5058921;28;20730;-69
2022/03/01 07:48:20;;;;;;;15.30;9.37;;;;;;;0.26;nan;99363.50;5058866;28;20454;-69
2022/03/01 07:50:46;;;;;;;17.10;9.93;;;;;;;0.27;nan;99366.94;5059053;28;20433;-69
2022/03/01 07:53:13;;;;;;;16.00;10.07;;;;;;;0.33;nan;99365.50;5059047;28;20433;-69
2022/03/01 07:55:39;;;;;;;15.73;11.03;;;;;;;0.40;nan;99370.25;5058892;28;20765;-69
2022/03/01 07:58:06;;;;;;;16.83;10.53;;;;;;;0.46;nan;99356.66;5058871;28;20474;-69
2022/03/01 08:00:32;;;;;;;18.80;9.63;;;;;;;0.59;nan;99371.25;5058592;28;20899;-69
2022/03/01 08:02:58;;;;;;;14.10;9.57;;;;;;;0.61;nan;99365.88;5058715;28;20830;-69
2022/03/01 08:05:25;;;;;;;16.83;10.50;;;;;;;0.70;nan;99354.66;5058938;28;20430;-69
2022/03/01 08:07:52;;;;;;;16.77;9.57;;;;;;;0.72;nan;99348.34;5058761;28;20460;-69
2022/03/01 08:10:19;;;;;;;18.53;10.70;;;;;;;0.76;nan;99354.16;5059413;28;20437;-69
2022/03/01 08:12:45;;;;;;;18.13;10.00;;;;;;;0.81;nan;99352.00;5059035;28;20213;-69
2022/03/01 08:15:12;;;;;;;17.30;9.17;;;;;;;0.86;nan;99345.41;5058954;28;20453;-69
2022/03/01 08:17:56;;;;;;;17.33;10.40;;;;;;;0.96;nan;99346.34;5058709;28;20474;-69
2022/03/01 08:20:24;;;;;;;14.80;9.07;;;;;;;0.94;nan;99340.38;5058752;28;20856;-69
2022/03/01 08:22:50;;;;;;;15.60;8.57;;;;;;;1.17;nan;99333.22;5058185;28;20212;-69
2022/03/01 08:25:18;;;;;;;17.43;9.60;;;;;;;1.23;nan;99332.72;5058415;28;20493;-69
2022/03/01 08:27:45;;;;;;;13.87;8.57;;;;;;;1.29;nan;99337.41;5057922;28;20225;-69
2022/03/01 08:30:12;;;;;;;13.23;8.40;;;;;;;1.20;nan;99339.03;5058686;28;20496;-69
2022/03/01 08:32:39;;;;;;;15.07;7.90;;;;;;;1.39;nan;99333.09;5058619;28;20196;-69
2022/03/01 08:35:06;;;;;;;15.13;7.70;;;;;;;1.45;nan;99336.00;5058681;28;20189;-69
2022/03/01 08:37:33;;;;;;;10.53;7.93;;;;;;;1.50;nan;99331.19;5058339;28;20216;-69
2022/03/01 08:39:59;;;;;;;11.33;7.57;;;;;;;1.56;nan;99327.19;5058301;28;20201;-69
2022/03/01 08:42:26;;;;;;;9.30;7.47;;;;;;;1.64;nan;99325.59;5058457;28;20185;-69
2022/03/01 08:44:52;;;;;;;13.20;7.83;;;;;;;1.75;nan;99324.69;5057764;28;20597;-69
2022/03/01 08:47:18;;;;;;;10.80;7.50;;;;;;;1.58;nan;99320.06;5057925;28;20623;-68
2022/03/01 08:49:45;;;;;;;12.03;7.90;;;;;;;1.77;nan;99327.97;5057766;28;20654;-69
2022/03/01 08:52:11;;;;;;;11.63;7.97;;;;;;;1.88;nan;99320.84;5058609;28;20512;-71
2022/03/01 08:54:38;;;;;;;11.87;8.03;;;;;;;1.99;nan;99322.53;5058288;28;20189;-71
2022/03/01 08:57:04;;;;;;;12.70;7.70;;;;;;;2.01;nan;99320.59;5057836;28;20617;-71
2022/03/01 08:59:30;;;;;;;10.47;7.90;;;;;;;1.98;nan;99326.94;5057759;28;20389;-71
2022/03/01 09:01:58;;;;;;;10.97;7.57;;;;;;;2.03;nan;99316.06;5057700;28;20589;-71
2022/03/01 09:04:24;;;;;;;11.17;7.33;;;;;;;2.23;nan;99315.94;5057984;28;20241;-71
2022/03/01 09:06:51;;;;;;;14.37;8.00;;;;;;;2.18;nan;99314.69;5058084;28;20185;-71
2022/03/01 09:09:17;;;;;;;12.07;7.40;;;;;;;2.29;nan;99317.19;5057934;28;20225;-70
2022/03/01 09:11:44;;;;;;;10.67;7.10;;;;;;;2.40;nan;99311.81;5057860;28;20200;-70
2022/03/01 09:14:10;;;;;;;12.27;7.67;;;;;;;2.27;nan;99308.63;5058100;28;20201;-71
2022/03/01 09:16:38;;;;;;;10.17;7.67;;;;;;;2.28;nan;99303.25;5057890;28;20213;-70
2022/03/01 09:19:05;;;;;;;12.10;7.67;;;;;;;2.38;nan;99303.25;5057332;28;20225;-70
2022/03/01 09:21:31;;;;;;;10.93;7.73;;;;;;;2.48;nan;99299.66;5057838;28;20297;-70
2022/03/01 09:23:57;;;;;;;11.17;7.53;;;;;;;2.45;nan;99299.97;5057558;28;20186;-71
2022/03/01 09:26:24;;;;;;;13.50;7.97;;;;;;;2.72;nan;99294.84;5057570;28;20189;-71
2022/03/01 09:28:50;;;;;;;11.60;7.67;;;;;;;2.91;nan;99286.94;5057394;28;20221;-71
2022/03/01 09:31:17;;;;;;;10.10;7.20;;;;;;;2.92;nan;99288.56;5057456;28;20193;-71
2022/03/01 09:33:43;;;;;;;10.13;7.13;;;;;;;2.85;nan;99292.72;5057441;28;20276;-71
2022/03/01 09:36:11;;;;;;;11.43;7.30;;;;;;;3.12;nan;99298.06;5057277;28;20222;-71
2022/03/01 09:38:38;;;;;;;14.17;7.37;;;;;;;3.07;nan;99292.41;5057324;28;20688;-71
2022/03/01 09:41:04;;;;;;;8.93;6.70;;;;;;;3.04;nan;99292.72;5057096;28;20609;-71
2022/03/01 09:43:31;;;;;;;13.07;7.13;;;;;;;3.40;nan;99291.06;5056996;28;20225;-71
2022/03/01 09:45:58;;;;;;;9.87;7.47;;;;;;;3.21;nan;99284.06;5057100;28;20194;-71
2022/03/01 09:48:24;;;;;;;11.00;7.50;;;;;;;3.41;nan;99279.56;5056984;28;20232;-71
2022/03/01 09:50:51;;;;;;;11.40;7.20;;;;;;;3.64;nan;99286.13;5056978;28;20628;-71
2022/03/01 09:53:17;;;;;;;9.87;6.87;;;;;;;3.56;nan;99283.38;5057192;28;20189;-71
2022/03/01 09:55:43;;;;;;;10.43;7.23;;;;;;;3.55;nan;99281.72;5056300;28;20190;-71
2022/03/01 09:58:10;;;;;;;8.50;6.50;;;;;;;3.63;nan;99281.84;5057254;28;20229;-71
2022/03/01 10:00:36;;;;;;;11.17;7.17;;;;;;;3.81;nan;99277.47;5056953;28;20209;-71
2022/03/01 10:03:03;;;;;;;12.27;7.17;;;;;;;3.83;nan;99278.97;5056893;28;20604;-71
2022/03/01 10:05:38;;;;;;;9.93;6.30;;;;;;;3.96;nan;99276.81;5057000;28;20611;-71
2022/03/01 10:08:15;;;;;;;7.80;6.30;;;;;;;4.09;nan;99269.41;5057140;28;20232;-71
2022/03/01 10:10:49;;;;;;;9.23;6.43;;;;;;;4.02;nan;99270.16;5056990;28;20193;-71
2022/03/01 10:13:27;;;;;;;8.80;6.30;;;;;;;4.10;nan;99270.22;5056617;28;20204;-71
2022/03/01 10:16:07;;;;;;;9.13;6.73;;;;;;;4.29;nan;99278.00;5056906;28;20189;-70
2022/03/01 10:18:42;;;;;;;8.73;6.20;;;;;;;4.44;nan;99269.38;5056636;28;20231;-71
2022/03/01 10:21:12;;;;;;;7.47;5.80;;;;;;;4.41;nan;99271.50;5056389;28;20235;-71
2022/03/01 10:23:41;;;;;;;8.30;6.23;;;;;;;4.52;nan;99260.75;5056743;28;20194;-71
2022/03/01 10:26:19;;;;;;;9.47;7.13;;;;;;;4.56;nan;99264.75;5056756;28;20190;-70
2022/03/01 10:28:47;;;;;;;10.13;6.90;;;;;;;4.40;nan;99244.38;5056416;28;20229;-71
2022/03/01 10:31:17;;;;;;;10.93;6.57;;;;;;;4.42;nan;99257.34;5056724;28;20196;-70
2022/03/01 10:34:03;;;;;;;9.63;6.97;;;;;;;4.66;nan;99257.59;5056641;28;20198;-71
2022/03/01 10:36:44;;;;;;;9.00;6.77;;;;;;;4.59;nan;99252.09;5056545;28;20197;-71
2022/03/01 10:39:12;;;;;;;11.17;6.53;;;;;;;4.81;nan;99254.25;5056070;28;20679;-71
2022/03/01 10:41:42;;;;;;;9.77;6.97;;;;;;;4.73;nan;99253.34;5056111;28;20477;-71
2022/03/01 10:44:15;;;;;;;7.80;6.37;;;;;;;4.91;nan;99248.88;5055954;28;20200;-71
2022/03/01 10:46:46;;;;;;;9.97;6.63;;;;;;;4.62;nan;99248.34;5056012;28;20563;-70
2022/03/01 10:49:15;;;;;;;8.13;6.47;;;;;;;4.78;nan;99254.53;5056302;28;20225;-72
2022/03/01 10:51:53;;;;;;;10.37;6.50;;;;;;;4.57;nan;99240.88;5056234;28;20284;-73
2022/03/01 10:54:30;;;;;;;8.27;6.27;;;;;;;4.94;nan;99252.03;5055735;28;20588;-73
2022/03/01 10:56:57;;;;;;;10.50;6.80;;;;;;;4.97;nan;99245.63;5056272;28;20185;-72
2022/03/01 10:59:29;;;;;;;9.30;6.30;;;;;;;5.29;nan;99243.19;5056200;28;20231;-73
2022/03/01 11:01:57;;;;;;;9.70;6.23;;;;;;;5.30;nan;99240.38;5056047;28;20212;-72
2022/03/01 11:04:25;;;;;;;8.67;6.17;;;;;;;5.10;nan;99243.38;5055690;28;20599;-73
2022/03/01 11:06:54;;;;;;;10.00;7.03;;;;;;;5.23;nan;99243.78;5056468;28;20259;-72
2022/03/01 11:09:25;;;;;;;8.50;6.43;;;;;;;4.98;nan;99239.38;5055527;28;20229;-73
2022/03/01 11:11:53;;;;;;;7.87;5.60;;;;;;;5.23;nan;99244.63;5055509;28;20236;-73
2022/03/01 11:14:25;;;;;;;8.03;6.03;;;;;;;5.04;nan;99233.47;5055811;28;20208;-73
2022/03/01 11:17:04;;;;;;;9.43;6.00;;;;;;;5.29;nan;99230.00;5055763;28;20193;-74
2022/03/01 11:19:58;;;;;;;8.13;6.37;;;;;;;5.68;nan;99225.88;5055208;28;20462;-73
2022/03/01 11:23:14;;;;;;;8.50;6.50;;;;;;;5.54;nan;99223.84;5055236;28;20194;-73
2022/03/01 11:25:45;;;;;;;8.20;6.13;;;;;;;5.32;nan;99227.03;5052525;28;20198;-73
2022/03/01 11:28:12;;;;;;;9.07;6.23;;;;;;;4.91;nan;99215.44;5055582;28;20636;-73
2022/03/01 11:30:51;;;;;;;8.63;5.97;;;;;;;5.28;nan;99217.78;5055961;28;20194;-73
2022/03/01 11:33:29;;;;;;;8.70;6.13;;;;;;;5.21;nan;99208.88;5055814;28;20615;-73
2022/03/01 11:35:57;;;;;;;6.67;5.30;;;;;;;5.44;nan;99209.97;5055663;28;20492;-73
2022/03/01 11:38:32;;;;;;;9.27;6.00;;;;;;;5.31;nan;99212.19;5056116;28;20229;-73
2022/03/01 11:41:28;;;;;;;7.83;5.57;;;;;;;5.36;nan;99213.41;5055573;28;20197;-73
2022/03/01 11:43:59;;;;;;;7.77;5.53;;;;;;;5.33;nan;99216.34;5046975;28;20201;-73
2022/03/01 11:46:26;;;;;;;7.07;5.70;;;;;;;5.31;nan;99212.19;5055488;28;20196;-74
2022/03/01 11:48:54;;;;;;;6.80;5.53;;;;;;;5.50;nan;99209.31;5055743;28;20217;-73
2022/03/01 11:51:39;;;;;;;7.90;5.63;;;;;;;5.63;nan;99209.69;5055704;28;20200;-74